createdAt,value
2019-02-09T00:02:06.905Z,99479.00
2019-02-09T00:04:37.278Z,99485.00
2019-02-09T00:07:07.711Z,99481.00
2019-02-09T00:09:38.069Z,99469.00
2019-02-09T00:12:08.416Z,99455.00
2019-02-09T00:14:38.805Z,99458.00
2019-02-09T00:17:09.435Z,99438.00
2019-02-09T00:19:39.995Z,99443.00
2019-02-09T00:22:10.341Z,99440.00
2019-02-09T00:24:40.956Z,99432.00
2019-02-09T00:27:11.417Z,99417.00
2019-02-09T00:29:46.486Z,99411.00
2019-02-09T00:32:14.133Z,99409.00
2019-02-09T00:34:44.385Z,99401.00
2019-02-09T00:37:14.805Z,99393.00
2019-02-09T00:39:45.273Z,99390.00
2019-02-09T00:42:15.525Z,99380.00
2019-02-09T00:44:45.848Z,99388.00
2019-02-09T00:47:16.381Z,99362.00
2019-02-09T00:49:46.649Z,99356.00
2019-02-09T00:52:17.011Z,99358.00
2019-02-09T00:54:47.370Z,99359.00
2019-02-09T00:57:17.832Z,99360.00
2019-02-09T00:59:53.950Z,99351.00
2019-02-09T01:02:20.198Z,99359.00
2019-02-09T01:04:50.439Z,99354.00
2019-02-09T01:07:20.809Z,99337.00
2019-02-09T01:09:51.100Z,99346.00
2019-02-09T01:12:21.424Z,99348.00
2019-02-09T01:14:51.642Z,99332.00
2019-02-09T01:17:21.974Z,99343.00
2019-02-09T01:19:52.307Z,99346.00
2019-02-09T01:22:23.970Z,99351.00
2019-02-09T01:24:54.253Z,99343.00
2019-02-09T01:27:24.945Z,99343.00
2019-02-09T01:30:02.176Z,99344.00
2019-02-09T01:32:27.285Z,99338.00
2019-02-09T01:34:57.578Z,99332.00
2019-02-09T01:37:27.892Z,99328.00
2019-02-09T01:39:58.238Z,99325.00
2019-02-09T01:42:28.737Z,99332.00
2019-02-09T01:44:59.044Z,99322.00
2019-02-09T01:47:29.697Z,99320.00
2019-02-09T01:50:00.042Z,99324.00
2019-02-09T01:52:30.561Z,99321.00
2019-02-09T01:55:00.953Z,99313.00
2019-02-09T01:57:31.315Z,99312.00
2019-02-09T02:00:01.615Z,99308.00
2019-02-09T02:02:31.944Z,99297.00
2019-02-09T02:05:02.335Z,99289.00
2019-02-09T02:07:32.599Z,99286.00
2019-02-09T02:10:03.258Z,99288.00
2019-02-09T02:12:33.532Z,99282.00
2019-02-09T02:15:05.456Z,99292.00
2019-02-09T02:17:35.782Z,99278.00
2019-02-09T02:20:07.659Z,99272.00
2019-02-09T02:22:38.066Z,99272.00
2019-02-09T02:25:08.814Z,99265.00
2019-02-09T02:27:39.232Z,99265.00
2019-02-09T02:30:22.170Z,99269.00
2019-02-09T02:32:44.268Z,99269.00
2019-02-09T02:35:15.117Z,99258.00
2019-02-09T02:37:45.470Z,99268.00
2019-02-09T02:40:17.002Z,99270.00
2019-02-09T02:42:47.355Z,99271.00
2019-02-09T02:45:18.382Z,99260.00
2019-02-09T02:47:48.990Z,99252.00
2019-02-09T02:50:21.121Z,99257.00
2019-02-09T02:52:51.560Z,99255.00
2019-02-09T02:55:23.531Z,99249.00
2019-02-09T02:57:54.366Z,99250.00
2019-02-09T03:00:32.357Z,99246.00
2019-02-09T03:03:01.778Z,99256.00
2019-02-09T03:05:32.018Z,99267.00
2019-02-09T03:08:02.316Z,99253.00
2019-02-09T03:10:32.643Z,99260.00
2019-02-09T03:13:03.077Z,99272.00
2019-02-09T03:15:52.384Z,99277.00
2019-02-09T03:18:22.665Z,99263.00
2019-02-09T03:20:53.006Z,99259.00
2019-02-09T03:23:23.364Z,99250.00
2019-02-09T03:25:53.626Z,99250.00
2019-02-09T03:28:23.880Z,99247.00
2019-02-09T03:30:54.203Z,99239.00
2019-02-09T03:33:24.567Z,99240.00
2019-02-09T03:35:54.843Z,99246.00
2019-02-09T03:38:25.094Z,99242.00
2019-02-09T03:40:55.372Z,99239.00
2019-02-09T03:43:25.625Z,99237.00
2019-02-09T03:45:55.928Z,99249.00
2019-02-09T03:48:26.468Z,99250.00
2019-02-09T03:50:56.680Z,99246.00
2019-02-09T03:53:26.890Z,99238.00
2019-02-09T03:55:58.579Z,99232.00
2019-02-09T03:58:28.736Z,99221.00
2019-02-09T04:00:59.147Z,99210.00
2019-02-09T04:03:29.524Z,99202.00
2019-02-09T04:05:59.787Z,99202.00
2019-02-09T04:08:33.033Z,99217.00
2019-02-09T04:11:03.377Z,99218.00
2019-02-09T04:13:33.674Z,99215.00
2019-02-09T04:16:06.568Z,99223.00
2019-02-09T04:18:36.780Z,99221.00
2019-02-09T04:21:07.036Z,99223.00
2019-02-09T04:23:37.400Z,99204.00
2019-02-09T04:26:07.700Z,99215.00
2019-02-09T04:28:37.968Z,99217.00
2019-02-09T04:31:08.240Z,99214.00
2019-02-09T04:33:38.558Z,99222.00
2019-02-09T04:36:08.793Z,99214.00
2019-02-09T04:38:39.047Z,99213.00
2019-02-09T04:41:09.264Z,99207.00
2019-02-09T04:43:39.394Z,99218.00
2019-02-09T04:46:09.618Z,99208.00
2019-02-09T04:48:39.946Z,99203.00
2019-02-09T04:51:10.276Z,99208.00
2019-02-09T04:53:40.474Z,99198.00
2019-02-09T04:56:10.788Z,99198.00
2019-02-09T04:58:41.079Z,99207.00
2019-02-09T05:01:14.161Z,99222.00
2019-02-09T05:03:43.673Z,99215.00
2019-02-09T05:06:13.984Z,99220.00
2019-02-09T05:08:47.107Z,99217.00
2019-02-09T05:11:17.370Z,99204.00
2019-02-09T05:13:47.768Z,99201.00
2019-02-09T05:16:18.031Z,99196.00
2019-02-09T05:18:48.304Z,99196.00
2019-02-09T05:21:18.642Z,99209.00
2019-02-09T05:23:48.950Z,99215.00
2019-02-09T05:26:19.218Z,99208.00
2019-02-09T05:28:49.497Z,99195.00
2019-02-09T05:31:23.136Z,99200.00
2019-02-09T05:33:55.025Z,99208.00
2019-02-09T05:36:25.354Z,99220.00
2019-02-09T05:38:55.672Z,99218.00
2019-02-09T05:41:25.949Z,99216.00
2019-02-09T05:43:56.294Z,99217.00
2019-02-09T05:46:26.608Z,99205.00
2019-02-09T05:48:56.935Z,99190.00
2019-02-09T05:51:27.655Z,99184.00
2019-02-09T05:53:57.986Z,99191.00
2019-02-09T05:56:28.321Z,99195.00
2019-02-09T05:58:58.529Z,99203.00
2019-02-09T06:01:32.289Z,99210.00
2019-02-09T06:04:00.714Z,99218.00
2019-02-09T06:06:31.125Z,99208.00
2019-02-09T06:09:01.513Z,99203.00
2019-02-09T06:11:31.860Z,99205.00
2019-02-09T06:14:02.081Z,99212.00
2019-02-09T06:16:32.514Z,99215.00
2019-02-09T06:19:02.782Z,99198.00
2019-02-09T06:21:36.025Z,99202.00
2019-02-09T06:24:06.221Z,99207.00
2019-02-09T06:26:36.336Z,99211.00
2019-02-09T06:29:06.579Z,99222.00
2019-02-09T06:31:41.014Z,99218.00
2019-02-09T06:34:08.509Z,99217.00
2019-02-09T06:36:38.683Z,99227.00
2019-02-09T06:39:09.344Z,99213.00
2019-02-09T06:41:41.446Z,99232.00
2019-02-09T06:44:11.727Z,99236.00
2019-02-09T06:46:42.053Z,99228.00
2019-02-09T06:49:12.248Z,99236.00
2019-02-09T06:51:42.579Z,99234.00
2019-02-09T06:54:13.082Z,99238.00
2019-02-09T06:56:43.698Z,99239.00
2019-02-09T06:59:14.243Z,99250.00
2019-02-09T07:01:48.757Z,99240.00
2019-02-09T07:04:17.275Z,99240.00
2019-02-09T07:06:47.989Z,99244.00
2019-02-09T07:09:18.531Z,99246.00
2019-02-09T07:11:49.073Z,99248.00
2019-02-09T07:14:19.869Z,99242.00
2019-02-09T07:16:50.285Z,99258.00
2019-02-09T07:19:20.789Z,99274.00
2019-02-09T07:21:51.463Z,99271.00
2019-02-09T07:24:21.929Z,99297.00
2019-02-09T07:26:52.470Z,99272.00
2019-02-09T07:29:23.019Z,99287.00
2019-02-09T07:31:56.563Z,99292.00
2019-02-09T07:34:25.343Z,99284.00
2019-02-09T07:36:55.891Z,99310.00
2019-02-09T07:39:26.455Z,99296.00
2019-02-09T07:41:56.905Z,99315.00
2019-02-09T07:44:27.569Z,99329.00
2019-02-09T07:46:58.343Z,99320.00
2019-02-09T07:49:29.035Z,99323.00
2019-02-09T07:51:59.584Z,99326.00
2019-02-09T07:54:30.113Z,99321.00
2019-02-09T07:57:00.932Z,99315.00
2019-02-09T07:59:31.503Z,99319.00
2019-02-09T08:02:04.690Z,99330.00
2019-02-09T08:04:34.846Z,99337.00
2019-02-09T08:07:05.806Z,99354.00
2019-02-09T08:09:36.379Z,99354.00
2019-02-09T08:12:09.238Z,99356.00
2019-02-09T08:14:40.185Z,99350.00
2019-02-09T08:17:10.856Z,99356.00
2019-02-09T08:19:41.405Z,99341.00
2019-02-09T08:22:11.997Z,99360.00
2019-02-09T08:24:46.304Z,99365.00
2019-02-09T08:27:23.599Z,99359.00
2019-02-09T08:29:52.529Z,99365.00
2019-02-09T08:32:23.037Z,99367.00
2019-02-09T08:34:54.083Z,99366.00
2019-02-09T08:37:24.686Z,99381.00
2019-02-09T08:39:55.241Z,99376.00
2019-02-09T08:42:26.323Z,99373.00
2019-02-09T08:44:56.809Z,99369.00
2019-02-09T08:47:27.467Z,99370.00
2019-02-09T08:49:57.802Z,99380.00
2019-02-09T08:52:28.362Z,99371.00
2019-02-09T08:54:58.801Z,99374.00
2019-02-09T08:57:29.205Z,99370.00
2019-02-09T09:00:00.242Z,99358.00
2019-02-09T09:02:30.936Z,99358.00
2019-02-09T09:05:09.392Z,99365.00
2019-02-09T09:07:33.547Z,99368.00
2019-02-09T09:10:05.056Z,99367.00
2019-02-09T09:12:35.369Z,99382.00
2019-02-09T09:15:09.037Z,99385.00
2019-02-09T09:17:39.769Z,99413.00
2019-02-09T09:20:15.026Z,99385.00
2019-02-09T09:22:45.333Z,99405.00
2019-02-09T09:25:16.245Z,99396.00
2019-02-09T09:27:46.596Z,99385.00
2019-02-09T09:30:19.619Z,99393.00
2019-02-09T09:32:50.197Z,99401.00
2019-02-09T09:35:20.824Z,99395.00
2019-02-09T09:37:51.771Z,99383.00
2019-02-09T09:40:24.746Z,99411.00
2019-02-09T09:42:55.059Z,99405.00
2019-02-09T09:45:27.981Z,99420.00
2019-02-09T09:47:59.329Z,99420.00
2019-02-09T09:50:30.486Z,99409.00
2019-02-09T09:53:00.987Z,99421.00
2019-02-09T09:55:31.606Z,99428.00
2019-02-09T09:58:02.590Z,99413.00
2019-02-09T10:00:33.158Z,99419.00
2019-02-09T10:03:03.828Z,99436.00
2019-02-09T10:05:34.418Z,99457.00
2019-02-09T10:08:06.442Z,99443.00
2019-02-09T10:10:37.162Z,99456.00
2019-02-09T10:13:10.392Z,99454.00
2019-02-09T10:15:41.146Z,99453.00
2019-02-09T10:18:11.632Z,99460.00
2019-02-09T10:20:42.069Z,99465.00
2019-02-09T10:23:12.818Z,99461.00
2019-02-09T10:25:43.142Z,99437.00
2019-02-09T10:28:13.770Z,99464.00
2019-02-09T10:30:44.156Z,99488.00
2019-02-09T10:33:14.528Z,99452.00
2019-02-09T10:35:44.935Z,99476.00
2019-02-09T10:38:15.478Z,99464.00
2019-02-09T10:40:46.046Z,99471.00
2019-02-09T10:43:16.463Z,99461.00
2019-02-09T10:45:46.923Z,99461.00
2019-02-09T10:48:17.550Z,99467.00
2019-02-09T10:50:47.993Z,99469.00
2019-02-09T10:53:18.438Z,99471.00
2019-02-09T10:55:48.920Z,99480.00
2019-02-09T10:58:19.402Z,99475.00
2019-02-09T11:00:56.871Z,99480.00
2019-02-09T11:03:27.370Z,99473.00
2019-02-09T11:05:57.845Z,99461.00
2019-02-09T11:08:28.321Z,99468.00
2019-02-09T11:10:59.027Z,99459.00
2019-02-09T11:13:29.616Z,99463.00
2019-02-09T11:16:01.514Z,99479.00
2019-02-09T11:18:32.229Z,99471.00
2019-02-09T11:21:02.570Z,99473.00
2019-02-09T11:23:32.936Z,99461.00
2019-02-09T11:26:03.328Z,99470.00
2019-02-09T11:28:33.684Z,99469.00
2019-02-09T11:31:06.406Z,99469.00
2019-02-09T11:33:36.882Z,99476.00
2019-02-09T11:36:07.259Z,99478.00
2019-02-09T11:38:37.649Z,99508.00
2019-02-09T11:41:08.026Z,99502.00
2019-02-09T11:43:38.546Z,99490.00
2019-02-09T11:46:09.014Z,99508.00
2019-02-09T11:48:39.716Z,99493.00
2019-02-09T11:51:10.710Z,99483.00
2019-02-09T11:53:41.168Z,99487.00
2019-02-09T11:56:11.674Z,99485.00
2019-02-09T11:58:42.206Z,99475.00
2019-02-09T12:01:12.716Z,99470.00
2019-02-09T12:03:43.080Z,99465.00
2019-02-09T12:06:14.030Z,99449.00
2019-02-09T12:08:44.567Z,99455.00
2019-02-09T12:11:14.957Z,99456.00
2019-02-09T12:13:45.452Z,99443.00
2019-02-09T12:16:15.732Z,99461.00
2019-02-09T12:18:46.113Z,99466.00
2019-02-09T12:21:16.561Z,99455.00
2019-02-09T12:23:46.956Z,99462.00
2019-02-09T12:26:17.475Z,99462.00
2019-02-09T12:28:47.930Z,99451.00
2019-02-09T12:31:18.352Z,99454.00
2019-02-09T12:33:48.844Z,99453.00
2019-02-09T12:36:19.357Z,99448.00
2019-02-09T12:38:49.810Z,99458.00
2019-02-09T12:41:20.222Z,99453.00
2019-02-09T12:43:50.563Z,99437.00
2019-02-09T12:46:20.975Z,99443.00
2019-02-09T12:48:51.725Z,99437.00
2019-02-09T12:51:22.142Z,99450.00
2019-02-09T12:53:52.536Z,99454.00
2019-02-09T12:56:23.088Z,99451.00
2019-02-09T12:58:53.690Z,99462.00
2019-02-09T13:01:23.895Z,99468.00
2019-02-09T13:03:54.413Z,99466.00
2019-02-09T13:06:24.865Z,99452.00
2019-02-09T13:08:55.377Z,99463.00
2019-02-09T13:11:25.689Z,99464.00
2019-02-09T13:13:56.100Z,99470.00
2019-02-09T13:16:26.624Z,99468.00
2019-02-09T13:18:57.130Z,99477.00
2019-02-09T13:21:27.641Z,99459.00
2019-02-09T13:23:58.015Z,99476.00
2019-02-09T13:26:28.625Z,99495.00
2019-02-09T13:28:59.140Z,99478.00
2019-02-09T13:31:29.682Z,99495.00
2019-02-09T13:34:00.053Z,99503.00
2019-02-09T13:36:30.491Z,99487.00
2019-02-09T13:39:01.003Z,99482.00
2019-02-09T13:41:31.409Z,99489.00
2019-02-09T13:44:01.990Z,99481.00
2019-02-09T13:46:32.858Z,99493.00
2019-02-09T13:49:03.155Z,99489.00
2019-02-09T13:51:36.573Z,99488.00
2019-02-09T13:54:07.090Z,99483.00
2019-02-09T13:56:37.444Z,99502.00
2019-02-09T13:59:08.094Z,99469.00
2019-02-09T14:01:38.485Z,99488.00
2019-02-09T14:04:08.813Z,99487.00
2019-02-09T14:06:39.437Z,99487.00
2019-02-09T14:09:10.046Z,99505.00
2019-02-09T14:11:40.544Z,99490.00
2019-02-09T14:14:11.045Z,99497.00
2019-02-09T14:16:41.542Z,99475.00
2019-02-09T14:19:12.209Z,99484.00
2019-02-09T14:21:42.626Z,99482.00
2019-02-09T14:24:13.109Z,99497.00
2019-02-09T14:26:45.428Z,99492.00
2019-02-09T14:29:17.918Z,99490.00
2019-02-09T14:31:48.015Z,99484.00
2019-02-09T14:34:18.587Z,99479.00
2019-02-09T14:36:49.085Z,99468.00
2019-02-09T14:39:19.530Z,99480.00
2019-02-09T14:41:49.881Z,99470.00
2019-02-09T14:44:20.331Z,99469.00
2019-02-09T14:46:50.722Z,99470.00
2019-02-09T14:49:21.183Z,99469.00
2019-02-09T14:51:51.679Z,99467.00
2019-02-09T14:54:22.149Z,99457.00
2019-02-09T14:56:52.657Z,99444.00
2019-02-09T14:59:23.067Z,99483.00
2019-02-09T15:01:53.645Z,99499.00
2019-02-09T15:04:24.323Z,99522.00
2019-02-09T15:06:55.520Z,99553.00
2019-02-09T15:09:26.009Z,99581.00
2019-02-09T15:11:56.602Z,99544.00
2019-02-09T15:14:27.015Z,99557.00
2019-02-09T15:17:05.056Z,99547.00
2019-02-09T15:19:33.996Z,99556.00
2019-02-09T15:22:04.709Z,99537.00
2019-02-09T15:24:35.374Z,99553.00
2019-02-09T15:27:06.018Z,99532.00
2019-02-09T15:29:36.606Z,99553.00
2019-02-09T15:32:07.299Z,99540.00
2019-02-09T15:34:39.469Z,99549.00
2019-02-09T15:37:09.769Z,99548.00
2019-02-09T15:39:40.119Z,99554.00
2019-02-09T15:42:10.618Z,99547.00
2019-02-09T15:44:41.281Z,99567.00
2019-02-09T15:47:11.895Z,99564.00
2019-02-09T15:49:42.465Z,99567.00
2019-02-09T15:52:12.862Z,99557.00
2019-02-09T15:54:43.207Z,99570.00
2019-02-09T15:57:13.719Z,99568.00
2019-02-09T15:59:44.270Z,99582.00
2019-02-09T16:02:14.683Z,99592.00
2019-02-09T16:04:45.107Z,99576.00
2019-02-09T16:07:15.572Z,99588.00
2019-02-09T16:09:46.075Z,99576.00
2019-02-09T16:12:16.573Z,99593.00
2019-02-09T16:14:47.036Z,99600.00
2019-02-09T16:17:17.596Z,99587.00
2019-02-09T16:19:50.525Z,99581.00
2019-02-09T16:22:20.264Z,99582.00
2019-02-09T16:24:50.619Z,99583.00
2019-02-09T16:27:21.074Z,99593.00
2019-02-09T16:29:51.461Z,99598.00
2019-02-09T16:32:21.703Z,99593.00
2019-02-09T16:34:51.942Z,99591.00
2019-02-09T16:37:22.070Z,99599.00
2019-02-09T16:39:52.267Z,99592.00
2019-02-09T16:42:22.621Z,99598.00
2019-02-09T16:44:52.856Z,99600.00
2019-02-09T16:47:23.119Z,99617.00
2019-02-09T16:49:53.630Z,99616.00
2019-02-09T16:52:23.924Z,99613.00
2019-02-09T16:54:54.580Z,99614.00
2019-02-09T16:57:25.314Z,99633.00
2019-02-09T16:59:55.782Z,99626.00
2019-02-09T17:02:26.122Z,99622.00
2019-02-09T17:04:56.472Z,99621.00
2019-02-09T17:07:26.774Z,99615.00
2019-02-09T17:09:57.010Z,99617.00
2019-02-09T17:12:27.920Z,99618.00
2019-02-09T17:14:58.291Z,99633.00
2019-02-09T17:17:28.638Z,99642.00
2019-02-09T17:19:59.137Z,99645.00
2019-02-09T17:22:29.498Z,99649.00
2019-02-09T17:24:59.893Z,99648.00
2019-02-09T17:27:30.184Z,99644.00
2019-02-09T17:30:00.648Z,99653.00
2019-02-09T17:32:31.086Z,99660.00
2019-02-09T17:35:01.544Z,99666.00
2019-02-09T17:37:31.843Z,99674.00
2019-02-09T17:40:03.735Z,99678.00
2019-02-09T17:42:34.170Z,99675.00
2019-02-09T17:45:04.792Z,99670.00
2019-02-09T17:47:35.243Z,99679.00
2019-02-09T17:50:06.766Z,99685.00
2019-02-09T17:52:38.856Z,99689.00
2019-02-09T17:55:14.012Z,99702.00
2019-02-09T17:57:44.291Z,99701.00
2019-02-09T18:00:17.297Z,99706.00
2019-02-09T18:02:47.594Z,99720.00
2019-02-09T18:05:18.120Z,99716.00
2019-02-09T18:07:48.458Z,99714.00
2019-02-09T18:10:18.800Z,99743.00
2019-02-09T18:12:49.103Z,99748.00
2019-02-09T18:15:19.868Z,99731.00
2019-02-09T18:17:51.893Z,99733.00
2019-02-09T18:20:22.212Z,99733.00
2019-02-09T18:22:52.440Z,99737.00
2019-02-09T18:25:23.116Z,99748.00
2019-02-09T18:27:53.514Z,99749.00
2019-02-09T18:30:23.934Z,99743.00
2019-02-09T18:32:54.846Z,99745.00
2019-02-09T18:35:25.172Z,99751.00
2019-02-09T18:37:55.564Z,99754.00
2019-02-09T18:40:26.112Z,99751.00
2019-02-09T18:42:56.503Z,99750.00
2019-02-09T18:45:28.308Z,99755.00
2019-02-09T18:47:58.786Z,99741.00
2019-02-09T18:50:29.835Z,99744.00
2019-02-09T18:53:00.364Z,99750.00
2019-02-09T18:55:31.236Z,99742.00
2019-02-09T18:58:01.523Z,99747.00
2019-02-09T19:00:32.663Z,99766.00
2019-02-09T19:03:03.228Z,99751.00
2019-02-09T19:05:33.768Z,99763.00
2019-02-09T19:08:05.210Z,99765.00
2019-02-09T19:10:35.730Z,99766.00
2019-02-09T19:13:06.471Z,99770.00
2019-02-09T19:15:36.984Z,99757.00
2019-02-09T19:18:07.930Z,99755.00
2019-02-09T19:20:41.097Z,99767.00
2019-02-09T19:23:15.518Z,99768.00
2019-02-09T19:25:45.933Z,99791.00
2019-02-09T19:28:16.316Z,99770.00
2019-02-09T19:30:46.906Z,99772.00
2019-02-09T19:33:17.225Z,99781.00
2019-02-09T19:35:47.875Z,99778.00
2019-02-09T19:38:18.180Z,99783.00
2019-02-09T19:40:48.675Z,99791.00
2019-02-09T19:43:18.945Z,99793.00
2019-02-09T19:45:49.259Z,99803.00
2019-02-09T19:48:21.238Z,99807.00
2019-02-09T19:50:52.131Z,99804.00
2019-02-09T19:53:22.928Z,99809.00
2019-02-09T19:55:53.863Z,99807.00
2019-02-09T19:58:24.198Z,99803.00
2019-02-09T20:00:54.611Z,99804.00
2019-02-09T20:03:25.026Z,99807.00
2019-02-09T20:05:55.466Z,99822.00
2019-02-09T20:08:25.923Z,99806.00
2019-02-09T20:10:56.338Z,99818.00
2019-02-09T20:13:26.754Z,99804.00
2019-02-09T20:15:57.178Z,99807.00
2019-02-09T20:18:27.633Z,99818.00
2019-02-09T20:20:59.705Z,99819.00
2019-02-09T20:23:30.162Z,99817.00
2019-02-09T20:26:00.389Z,99826.00
2019-02-09T20:28:30.663Z,99824.00
2019-02-09T20:31:00.987Z,99826.00
2019-02-09T20:33:31.518Z,99823.00
2019-02-09T20:36:02.186Z,99839.00
2019-02-09T20:38:32.889Z,99845.00
2019-02-09T20:41:05.916Z,99836.00
2019-02-09T20:43:36.270Z,99850.00
2019-02-09T20:46:06.780Z,99859.00
2019-02-09T20:48:37.665Z,99855.00
2019-02-09T20:51:08.019Z,99855.00
2019-02-09T20:53:38.405Z,99863.00
2019-02-09T20:56:08.900Z,99866.00
2019-02-09T20:58:39.452Z,99869.00
2019-02-09T21:01:09.729Z,99878.00
2019-02-09T21:03:40.243Z,99873.00
2019-02-09T21:06:10.581Z,99881.00
2019-02-09T21:08:41.033Z,99867.00
2019-02-09T21:11:11.285Z,99874.00
2019-02-09T21:13:41.724Z,99873.00
2019-02-09T21:16:12.046Z,99862.00
2019-02-09T21:18:42.523Z,99862.00
2019-02-09T21:21:12.891Z,99880.00
2019-02-09T21:23:43.273Z,99871.00
2019-02-09T21:26:13.648Z,99868.00
2019-02-09T21:28:44.009Z,99871.00
2019-02-09T21:31:14.325Z,99878.00
2019-02-09T21:33:44.649Z,99869.00
2019-02-09T21:36:15.027Z,99877.00
2019-02-09T21:38:45.462Z,99876.00
2019-02-09T21:41:15.755Z,99883.00
2019-02-09T21:43:46.166Z,99874.00
2019-02-09T21:46:16.442Z,99885.00
2019-02-09T21:48:48.501Z,99892.00
2019-02-09T21:51:18.879Z,99883.00
2019-02-09T21:53:49.220Z,99893.00
2019-02-09T21:56:19.641Z,99897.00
2019-02-09T21:58:49.977Z,99881.00
2019-02-09T22:01:20.364Z,99872.00
2019-02-09T22:03:50.649Z,99880.00
2019-02-09T22:06:21.082Z,99867.00
2019-02-09T22:08:51.430Z,99879.00
2019-02-09T22:11:21.810Z,99874.00
2019-02-09T22:13:52.193Z,99873.00
2019-02-09T22:16:22.469Z,99869.00
2019-02-09T22:18:53.025Z,99868.00
2019-02-09T22:21:23.717Z,99877.00
2019-02-09T22:23:54.232Z,99863.00
2019-02-09T22:26:24.919Z,99866.00
2019-02-09T22:28:55.261Z,99869.00
2019-02-09T22:31:25.765Z,99875.00
2019-02-09T22:33:56.110Z,99877.00
2019-02-09T22:36:26.504Z,99874.00
2019-02-09T22:38:56.846Z,99866.00
2019-02-09T22:41:27.251Z,99870.00
2019-02-09T22:43:57.625Z,99862.00
2019-02-09T22:46:27.942Z,99868.00
2019-02-09T22:48:58.302Z,99868.00
2019-02-09T22:51:28.627Z,99877.00
2019-02-09T22:53:58.996Z,99872.00
2019-02-09T22:56:29.345Z,99859.00
2019-02-09T22:58:59.927Z,99876.00
2019-02-09T23:01:44.128Z,99873.00
2019-02-09T23:04:51.623Z,99859.00
2019-02-09T23:07:40.449Z,99870.00
2019-02-09T23:10:13.273Z,99865.00
2019-02-09T23:12:48.690Z,99856.00
2019-02-09T23:15:15.760Z,99853.00
2019-02-09T23:17:46.239Z,99857.00
2019-02-09T23:20:18.169Z,99864.00
2019-02-09T23:22:48.708Z,99854.00
2019-02-09T23:25:19.143Z,99859.00
2019-02-09T23:27:49.506Z,99858.00
2019-02-09T23:30:20.115Z,99857.00
2019-02-09T23:32:50.437Z,99845.00
2019-02-09T23:35:20.751Z,99853.00
2019-02-09T23:37:50.951Z,99853.00
2019-02-09T23:40:21.161Z,99845.00
2019-02-09T23:42:51.462Z,99848.00
2019-02-09T23:45:21.942Z,99840.00
2019-02-09T23:47:52.437Z,99834.00
2019-02-09T23:50:22.761Z,99841.00
2019-02-09T23:52:53.089Z,99835.00
2019-02-09T23:55:23.431Z,99833.00
2019-02-09T23:57:53.766Z,99832.00
